Time;durP1;ratioP1;P1;durP2;ratioP2;P2;SDS_P1;SDS_P2;PMS_P1;PMS_P2;Temp;Humidity;BMP_temperature;BMP_pressure;BME280_temperature;BME280_humidity;BME280_pressure;Samples;Min_cycle;Max_cycle;Signal;HPM_P1;HPM_P2
2022/01/06 00:01:03;;;;;;;13.00;3.37;;;7.40;99.90;;;;;;5065826;28;20431;-41
2022/01/06 00:03:31;;;;;;;12.30;3.13;;;7.40;99.90;;;;;;5066702;28;20429;-44
2022/01/06 00:05:57;;;;;;;14.00;4.10;;;7.30;99.90;;;;;;5066215;28;20416;-42
2022/01/06 00:08:23;;;;;;;8.60;3.30;;;7.40;99.90;;;;;;5058795;28;20857;-42
2022/01/06 00:10:49;;;;;;;7.97;2.90;;;7.40;99.90;;;;;;5066403;28;20415;-44
2022/01/06 00:13:20;;;;;;;10.57;4.30;;;7.20;99.90;;;;;;5072219;28;20591;-42
2022/01/06 00:18:29;;;;;;;12.10;3.13;;;7.10;99.90;;;;;;5091351;28;20487;-45
2022/01/06 00:23:39;;;;;;;8.53;3.30;;;6.90;99.90;;;;;;5067557;28;20435;-43
2022/01/06 00:26:06;;;;;;;12.33;3.50;;;7.00;99.90;;;;;;5073403;28;20493;-44
2022/01/06 00:28:32;;;;;;;14.13;3.60;;;7.10;99.90;;;;;;5081971;28;20468;-41
2022/01/06 00:30:58;;;;;;;6.00;3.20;;;6.80;99.90;;;;;;5067069;28;20422;-42
2022/01/06 00:33:27;;;;;;;10.40;3.87;;;6.80;99.90;;;;;;5073600;28;20419;-44
2022/01/06 00:35:53;;;;;;;9.03;3.63;;;6.70;99.90;;;;;;5073400;28;20468;-41
2022/01/06 00:38:19;;;;;;;13.13;3.80;;;6.70;99.90;;;;;;5061918;28;20962;-41
2022/01/06 00:40:44;;;;;;;16.00;3.30;;;6.80;99.90;;;;;;5073031;28;20235;-41
2022/01/06 00:43:11;;;;;;;8.20;3.40;;;7.00;99.90;;;;;;5073641;28;20512;-42
2022/01/06 00:45:37;;;;;;;6.97;3.30;;;7.00;99.90;;;;;;5073527;28;20250;-41
2022/01/06 00:48:09;;;;;;;6.77;2.77;;;6.70;99.90;;;;;;5073386;28;20431;-42
2022/01/06 00:50:40;;;;;;;7.90;3.50;;;6.70;99.90;;;;;;5072763;28;20268;-41
2022/01/06 00:53:06;;;;;;;8.73;3.50;;;6.70;99.90;;;;;;5064266;28;20510;-42
2022/01/06 00:55:36;;;;;;;11.13;3.23;;;6.60;99.90;;;;;;5072040;28;20423;-44
2022/01/06 00:58:03;;;;;;;10.47;2.73;;;6.70;99.90;;;;;;5073333;28;20193;-43
2022/01/06 01:00:38;;;;;;;9.80;3.27;;;6.60;99.90;;;;;;5072830;28;20421;-42
2022/01/06 01:03:15;;;;;;;11.93;4.17;;;6.50;99.90;;;;;;5073264;28;20508;-42
2022/01/06 01:05:43;;;;;;;13.87;3.37;;;6.60;99.90;;;;;;5072531;28;20414;-41
2022/01/06 01:08:09;;;;;;;9.60;3.50;;;6.60;99.90;;;;;;5064742;28;21011;-42
2022/01/06 01:10:37;;;;;;;8.20;3.00;;;6.50;99.90;;;;;;5072532;28;20425;-41
2022/01/06 01:13:03;;;;;;;9.60;3.67;;;6.50;99.90;;;;;;5073376;28;20422;-41
2022/01/06 01:15:32;;;;;;;12.93;4.20;;;6.40;99.90;;;;;;5079916;28;20418;-41
2022/01/06 01:18:05;;;;;;;7.60;3.07;;;6.40;99.90;;;;;;5087432;28;20410;-41
2022/01/06 01:20:32;;;;;;;13.30;4.63;;;6.40;99.90;;;;;;5093429;28;20454;-42
2022/01/06 01:22:57;;;;;;;6.93;2.93;;;6.40;99.90;;;;;;5081974;28;20866;-41
2022/01/06 01:25:23;;;;;;;12.57;3.50;;;6.40;99.90;;;;;;5061180;28;20550;-42
2022/01/06 01:27:49;;;;;;;9.77;3.73;;;6.30;99.90;;;;;;5069667;28;20554;-41
2022/01/06 01:30:15;;;;;;;11.63;3.57;;;6.40;99.90;;;;;;5069112;28;20267;-41
2022/01/06 01:32:49;;;;;;;8.30;2.73;;;6.30;99.90;;;;;;5069375;28;20197;-41
2022/01/06 01:35:15;;;;;;;10.50;3.30;;;6.20;99.90;;;;;;5069817;28;20237;-42
2022/01/06 01:37:40;;;;;;;7.40;3.30;;;6.30;99.90;;;;;;5065208;28;20451;-43
2022/01/06 01:40:08;;;;;;;8.80;2.50;;;6.10;99.90;;;;;;5059390;28;20193;-41
2022/01/06 01:42:34;;;;;;;9.30;2.73;;;6.10;99.90;;;;;;5069746;28;20189;-42
2022/01/06 01:45:02;;;;;;;12.63;3.20;;;6.20;99.90;;;;;;5069664;28;20416;-41
2022/01/06 01:47:31;;;;;;;10.67;3.10;;;6.00;99.90;;;;;;5069448;28;20524;-44
2022/01/06 01:50:12;;;;;;;8.20;3.20;;;6.10;99.90;;;;;;5069096;28;20550;-41
2022/01/06 01:52:40;;;;;;;9.80;3.30;;;5.90;99.90;;;;;;5067247;28;20485;-43
2022/01/06 01:55:07;;;;;;;8.83;3.27;;;6.10;99.90;;;;;;5063315;28;20806;-41
2022/01/06 01:57:32;;;;;;;10.30;3.07;;;6.10;99.90;;;;;;5067721;28;20801;-42
2022/01/06 01:59:58;;;;;;;11.07;3.40;;;6.00;99.90;;;;;;5068911;28;20530;-42
2022/01/06 02:02:24;;;;;;;7.43;2.93;;;6.10;99.90;;;;;;5069049;28;20196;-41
2022/01/06 02:04:52;;;;;;;13.10;3.20;;;6.00;99.90;;;;;;5069250;28;20230;-43
2022/01/06 02:07:18;;;;;;;13.03;3.30;;;6.10;99.90;;;;;;5084084;28;20192;-44
2022/01/06 02:09:44;;;;;;;7.87;3.43;;;5.90;99.90;;;;;;5055078;28;20500;-41
2022/01/06 02:12:20;;;;;;;10.20;3.10;;;6.10;99.90;;;;;;5068621;28;20910;-42
2022/01/06 02:14:46;;;;;;;10.43;3.00;;;6.10;99.90;;;;;;5071903;28;20189;-41
2022/01/06 02:17:11;;;;;;;8.70;3.60;;;6.00;99.90;;;;;;5085966;28;20502;-41
2022/01/06 02:19:37;;;;;;;7.93;2.93;;;6.20;99.90;;;;;;5088883;28;20323;-42
2022/01/06 02:22:03;;;;;;;9.20;3.47;;;6.20;99.90;;;;;;5087792;28;20424;-42
2022/01/06 02:24:28;;;;;;;10.40;3.77;;;6.20;99.90;;;;;;5061287;28;20683;-42
2022/01/06 02:26:54;;;;;;;12.53;4.00;;;6.10;99.90;;;;;;5068729;28;20244;-42
2022/01/06 02:29:19;;;;;;;8.63;3.17;;;5.90;99.90;;;;;;5068747;28;20231;-41
2022/01/06 02:31:46;;;;;;;14.77;3.93;;;6.10;99.90;;;;;;5068185;28;20193;-41
2022/01/06 02:34:12;;;;;;;10.87;3.00;;;5.70;99.90;;;;;;5068651;28;20260;-41
2022/01/06 02:36:38;;;;;;;11.57;3.43;;;6.10;99.90;;;;;;5068423;28;20588;-43
2022/01/06 02:39:04;;;;;;;12.50;4.30;;;5.80;99.90;;;;;;5061410;28;20207;-44
2022/01/06 02:41:30;;;;;;;9.43;4.20;;;5.80;99.90;;;;;;5067892;28;20277;-43
2022/01/06 02:43:56;;;;;;;14.50;3.70;;;5.90;99.90;;;;;;5068605;28;20435;-42
2022/01/06 02:46:22;;;;;;;11.33;3.93;;;5.90;99.90;;;;;;5068404;28;20526;-42
2022/01/06 02:48:47;;;;;;;15.67;3.57;;;5.70;99.90;;;;;;5068284;28;20509;-41
2022/01/06 02:51:13;;;;;;;11.77;2.60;;;5.80;99.90;;;;;;5067771;28;20419;-42
2022/01/06 02:53:39;;;;;;;7.10;3.10;;;5.90;99.90;;;;;;5061591;28;20444;-41
2022/01/06 02:56:04;;;;;;;7.80;2.83;;;5.70;99.90;;;;;;5065294;28;20191;-41
2022/01/06 02:58:30;;;;;;;12.90;3.10;;;5.90;99.90;;;;;;5068812;28;20196;-45
2022/01/06 03:00:56;;;;;;;7.53;2.70;;;5.70;99.90;;;;;;5067704;28;20187;-47
2022/01/06 03:03:21;;;;;;;9.00;2.83;;;5.70;99.90;;;;;;5068023;28;20192;-45
2022/01/06 03:05:47;;;;;;;14.97;3.20;;;6.00;99.90;;;;;;5067469;28;20211;-42
2022/01/06 03:08:13;;;;;;;10.47;2.87;;;5.80;99.90;;;;;;5065062;28;20683;-41
2022/01/06 03:10:42;;;;;;;13.77;3.20;;;6.00;99.90;;;;;;5056006;28;20189;-41
2022/01/06 03:13:08;;;;;;;11.63;3.27;;;5.80;99.90;;;;;;5067856;28;20196;-41
2022/01/06 03:15:34;;;;;;;8.07;2.87;;;5.70;99.90;;;;;;5067726;28;20910;-41
2022/01/06 03:18:00;;;;;;;11.27;3.17;;;5.60;99.90;;;;;;5069401;28;20196;-41
2022/01/06 03:20:27;;;;;;;11.60;3.47;;;5.70;99.90;;;;;;5086183;28;20184;-44
2022/01/06 03:22:54;;;;;;;13.40;3.50;;;5.80;99.90;;;;;;5087511;28;20187;-42
2022/01/06 03:25:20;;;;;;;9.43;3.30;;;5.70;99.90;;;;;;5056289;28;20862;-42
2022/01/06 03:27:46;;;;;;;10.40;3.20;;;5.90;99.90;;;;;;5067409;28;20926;-41
2022/01/06 03:30:18;;;;;;;6.93;3.07;;;5.90;99.90;;;;;;5067551;28;20844;-41
2022/01/06 03:32:44;;;;;;;13.20;3.43;;;5.60;99.90;;;;;;5067409;28;20426;-42
2022/01/06 03:35:12;;;;;;;10.30;3.00;;;5.50;99.90;;;;;;5067984;28;20477;-43
2022/01/06 03:37:39;;;;;;;11.80;3.10;;;5.80;99.90;;;;;;5067057;28;20415;-41
2022/01/06 03:40:06;;;;;;;14.20;3.63;;;5.70;99.90;;;;;;5058594;28;20439;-44
2022/01/06 03:42:33;;;;;;;11.83;3.00;;;5.50;99.90;;;;;;5067156;28;20415;-42
2022/01/06 03:44:59;;;;;;;11.17;2.37;;;5.80;99.90;;;;;;5067459;28;20840;-41
2022/01/06 03:47:25;;;;;;;10.00;2.60;;;5.40;99.90;;;;;;5066780;28;20442;-42
2022/01/06 03:49:50;;;;;;;12.47;3.70;;;5.40;99.90;;;;;;5066367;28;20295;-42
2022/01/06 03:52:16;;;;;;;12.87;3.00;;;5.50;99.90;;;;;;5067366;28;20419;-43
2022/01/06 03:54:42;;;;;;;7.87;2.80;;;5.40;99.90;;;;;;5055693;28;20289;-42
2022/01/06 03:57:07;;;;;;;14.40;2.70;;;5.40;99.90;;;;;;5063237;28;20204;-41
2022/01/06 03:59:34;;;;;;;10.60;2.83;;;5.40;99.90;;;;;;5066758;28;20689;-41
2022/01/06 04:01:59;;;;;;;10.90;3.60;;;5.20;99.90;;;;;;5067125;28;20216;-41
2022/01/06 04:04:25;;;;;;;5.10;2.20;;;5.30;99.90;;;;;;5066940;28;20453;-44
2022/01/06 04:06:50;;;;;;;12.50;2.90;;;5.40;99.90;;;;;;5066323;28;20193;-42
2022/01/06 04:09:16;;;;;;;11.00;2.97;;;5.30;99.90;;;;;;5059052;28;20275;-41
2022/01/06 04:11:42;;;;;;;13.13;3.70;;;5.40;99.90;;;;;;5063386;28;20191;-43
2022/01/06 04:14:07;;;;;;;12.33;3.20;;;5.40;99.90;;;;;;5066780;28;20189;-43
2022/01/06 04:16:36;;;;;;;10.00;2.60;;;5.30;99.90;;;;;;5069179;28;20594;-44
2022/01/06 04:19:02;;;;;;;10.57;2.63;;;5.40;99.90;;;;;;5078200;28;20203;-43
2022/01/06 04:21:28;;;;;;;10.17;3.37;;;5.20;99.90;;;;;;5086483;28;20418;-41
2022/01/06 04:23:54;;;;;;;9.97;3.07;;;5.20;99.90;;;;;;5078806;28;20436;-44
2022/01/06 04:26:19;;;;;;;9.10;2.77;;;5.10;99.90;;;;;;5064115;28;20905;-43
2022/01/06 04:28:45;;;;;;;10.47;3.40;;;5.10;99.90;;;;;;5067139;28;20209;-42
2022/01/06 04:31:11;;;;;;;11.07;2.90;;;4.90;99.90;;;;;;5066656;28;20206;-41
2022/01/06 04:33:37;;;;;;;11.93;2.97;;;5.20;99.90;;;;;;5066883;28;20208;-42
2022/01/06 04:36:03;;;;;;;10.20;2.70;;;5.10;99.90;;;;;;5066735;28;20922;-42
2022/01/06 04:38:29;;;;;;;16.80;3.07;;;4.90;99.90;;;;;;5066934;28;20712;-41
2022/01/06 04:40:56;;;;;;;10.57;2.83;;;5.20;99.90;;;;;;5053825;28;20961;-42
2022/01/06 04:43:22;;;;;;;11.47;3.33;;;5.10;99.90;;;;;;5066912;28;20189;-41
2022/01/06 04:45:48;;;;;;;8.80;2.50;;;4.90;99.90;;;;;;5066746;28;20557;-42
2022/01/06 04:48:14;;;;;;;10.50;3.13;;;5.00;99.90;;;;;;5066727;28;20550;-45
2022/01/06 04:50:40;;;;;;;11.90;2.80;;;4.80;99.90;;;;;;5065979;28;20185;-43
2022/01/06 04:53:06;;;;;;;13.57;3.50;;;4.90;99.90;;;;;;5066869;28;20426;-42
2022/01/06 04:55:32;;;;;;;9.20;2.63;;;4.90;99.90;;;;;;5060274;28;20593;-45
2022/01/06 04:57:58;;;;;;;8.63;2.63;;;5.10;99.90;;;;;;5066791;28;20518;-44
2022/01/06 05:00:23;;;;;;;8.83;3.13;;;4.80;99.90;;;;;;5068852;28;20437;-42
2022/01/06 05:02:49;;;;;;;10.77;2.70;;;4.80;99.90;;;;;;5069982;28;20187;-43
2022/01/06 05:05:15;;;;;;;9.67;2.67;;;4.90;99.90;;;;;;5069480;28;20184;-42
2022/01/06 05:07:41;;;;;;;11.13;2.70;;;5.00;99.90;;;;;;5070254;28;20256;-42
2022/01/06 05:10:08;;;;;;;6.40;3.00;;;4.80;99.90;;;;;;5062477;28;20743;-43
2022/01/06 05:12:39;;;;;;;7.67;2.73;;;4.80;99.90;;;;;;5069900;28;20510;-43
2022/01/06 05:15:04;;;;;;;11.67;2.27;;;4.60;99.90;;;;;;5072716;28;20416;-43
2022/01/06 05:17:31;;;;;;;11.50;3.57;;;4.90;99.90;;;;;;5087136;28;20441;-44
2022/01/06 05:19:57;;;;;;;13.23;3.60;;;4.80;99.90;;;;;;5085586;28;20427;-42
2022/01/06 05:22:23;;;;;;;10.13;2.40;;;4.60;99.90;;;;;;5090331;28;20896;-44
2022/01/06 05:24:48;;;;;;;9.73;3.07;;;4.80;99.90;;;;;;5076722;28;20474;-42
2022/01/06 05:27:14;;;;;;;7.57;2.70;;;4.70;99.90;;;;;;5069610;28;20272;-41
2022/01/06 05:29:39;;;;;;;15.90;5.20;;;4.70;99.90;;;;;;5069174;28;20237;-42
2022/01/06 05:32:05;;;;;;;11.33;3.67;;;4.80;99.90;;;;;;5069578;28;20189;-42
2022/01/06 05:34:31;;;;;;;9.93;3.90;;;4.80;99.90;;;;;;5069869;28;20181;-44
2022/01/06 05:36:57;;;;;;;8.13;2.80;;;4.60;99.90;;;;;;5070120;28;21102;-42
2022/01/06 05:39:22;;;;;;;8.53;2.60;;;4.60;99.90;;;;;;5066955;28;20205;-41
2022/01/06 05:41:48;;;;;;;13.53;2.33;;;4.40;99.90;;;;;;5062684;28;20266;-42
2022/01/06 05:44:14;;;;;;;9.27;3.50;;;4.60;99.90;;;;;;5064291;28;20255;-42
2022/01/06 05:46:39;;;;;;;10.07;3.10;;;4.40;99.90;;;;;;5064565;28;20288;-42
2022/01/06 05:49:05;;;;;;;11.23;4.00;;;4.50;99.90;;;;;;5068980;28;20232;-42
2022/01/06 05:51:31;;;;;;;10.90;3.80;;;4.40;99.90;;;;;;5069081;28;20257;-42
2022/01/06 05:53:57;;;;;;;10.60;2.50;;;4.30;99.90;;;;;;5069486;28;20199;-42
2022/01/06 05:56:23;;;;;;;7.63;2.60;;;4.60;99.90;;;;;;5058586;28;20201;-42
2022/01/06 05:58:48;;;;;;;10.20;2.17;;;4.50;99.90;;;;;;5068831;28;20522;-42
2022/01/06 06:01:14;;;;;;;9.37;2.90;;;4.30;99.90;;;;;;5077771;28;20230;-42
2022/01/06 06:03:40;;;;;;;12.00;2.93;;;4.30;99.90;;;;;;5082543;28;20212;-41
2022/01/06 06:06:06;;;;;;;10.73;3.00;;;4.40;99.90;;;;;;5088768;28;20188;-43
2022/01/06 06:08:31;;;;;;;9.43;2.73;;;4.50;99.90;;;;;;5089716;28;20295;-42
2022/01/06 06:10:57;;;;;;;10.23;3.07;;;4.40;99.90;;;;;;5067316;28;20235;-44
2022/01/06 06:13:23;;;;;;;11.03;3.50;;;4.30;99.90;;;;;;5069114;28;20281;-42
2022/01/06 06:15:48;;;;;;;11.33;3.10;;;4.50;99.90;;;;;;5068223;28;20189;-43
2022/01/06 06:18:15;;;;;;;10.33;3.00;;;4.40;99.90;;;;;;5069057;28;20423;-44
2022/01/06 06:20:42;;;;;;;10.50;3.70;;;4.50;99.90;;;;;;5068288;28;20612;-44
2022/01/06 06:23:08;;;;;;;9.30;3.20;;;4.30;99.90;;;;;;5069010;28;20415;-42
2022/01/06 06:25:34;;;;;;;9.93;3.20;;;4.60;99.90;;;;;;5064926;28;20436;-44
2022/01/06 06:28:00;;;;;;;16.77;3.13;;;4.50;99.90;;;;;;5064989;28;20857;-42
2022/01/06 06:30:25;;;;;;;8.77;3.17;;;4.40;99.90;;;;;;5067519;28;20451;-42
2022/01/06 06:32:51;;;;;;;13.77;4.40;;;4.50;99.90;;;;;;5078284;28;20193;-42
2022/01/06 06:35:17;;;;;;;15.57;3.23;;;4.30;99.90;;;;;;5067790;28;20246;-42
2022/01/06 06:37:42;;;;;;;9.57;3.73;;;4.50;99.90;;;;;;5068807;28;20231;-44
2022/01/06 06:40:09;;;;;;;7.10;3.00;;;4.40;99.90;;;;;;5061648;28;20277;-43
2022/01/06 06:42:35;;;;;;;11.60;3.10;;;4.40;99.90;;;;;;5066294;28;20201;-43
2022/01/06 06:45:01;;;;;;;10.03;3.73;;;4.50;99.90;;;;;;5068241;28;20783;-44
2022/01/06 06:47:26;;;;;;;11.93;3.80;;;4.50;99.90;;;;;;5068463;28;20211;-43
2022/01/06 06:49:55;;;;;;;12.37;4.23;;;4.40;99.90;;;;;;5057269;28;20481;-44
2022/01/06 06:52:21;;;;;;;12.23;3.50;;;4.40;99.90;;;;;;5060280;28;20181;-43
2022/01/06 06:54:48;;;;;;;11.60;4.63;;;4.10;99.90;;;;;;5065726;28;21040;-42
2022/01/06 06:57:14;;;;;;;12.13;4.50;;;4.20;99.90;;;;;;5057666;28;20451;-44
2022/01/06 06:59:40;;;;;;;11.03;3.80;;;4.20;99.90;;;;;;5066654;28;20415;-44
2022/01/06 07:02:05;;;;;;;17.57;4.23;;;4.20;99.90;;;;;;5067497;28;20802;-42
2022/01/06 07:04:31;;;;;;;11.47;4.53;;;4.10;99.90;;;;;;5068206;28;20200;-42
2022/01/06 07:06:57;;;;;;;10.13;4.50;;;4.00;99.90;;;;;;5066836;28;20208;-41
2022/01/06 07:09:22;;;;;;;10.20;3.63;;;4.10;99.90;;;;;;5063595;28;20213;-43
2022/01/06 07:11:48;;;;;;;12.27;4.70;;;4.00;99.90;;;;;;5059477;28;20420;-42
2022/01/06 07:14:14;;;;;;;14.80;4.07;;;4.10;99.90;;;;;;5061396;28;20187;-42
2022/01/06 07:16:39;;;;;;;12.37;4.07;;;4.20;99.90;;;;;;5060035;28;20246;-41
2022/01/06 07:19:05;;;;;;;7.33;3.40;;;4.30;99.90;;;;;;5063461;28;20212;-43
2022/01/06 07:21:31;;;;;;;9.93;4.97;;;4.00;99.90;;;;;;5064136;28;20369;-44
2022/01/06 07:23:56;;;;;;;9.50;3.50;;;4.00;99.90;;;;;;5066602;28;20255;-44
2022/01/06 07:26:22;;;;;;;10.70;4.20;;;4.00;99.90;;;;;;5057805;28;20559;-43
2022/01/06 07:28:48;;;;;;;7.97;3.40;;;4.10;99.90;;;;;;5067636;28;20552;-43
2022/01/06 07:31:13;;;;;;;11.10;4.87;;;4.00;99.90;;;;;;5067334;28;20200;-42
2022/01/06 07:33:39;;;;;;;9.40;3.43;;;4.10;99.90;;;;;;5067561;28;20732;-43
2022/01/06 07:36:05;;;;;;;8.90;3.60;;;4.00;99.90;;;;;;5067669;28;20201;-43
2022/01/06 07:38:31;;;;;;;8.50;3.47;;;3.90;99.90;;;;;;5067364;28;20181;-45
2022/01/06 07:40:56;;;;;;;9.33;3.90;;;4.10;99.90;;;;;;5059059;28;20802;-43
2022/01/06 07:43:23;;;;;;;11.90;4.07;;;4.00;99.90;;;;;;5066324;28;20196;-42
2022/01/06 07:45:49;;;;;;;9.60;3.67;;;4.20;99.90;;;;;;5066006;28;20564;-43
2022/01/06 07:48:17;;;;;;;10.93;4.30;;;4.10;99.90;;;;;;5068959;28;20480;-45
2022/01/06 07:50:45;;;;;;;8.90;3.47;;;3.90;99.90;;;;;;5066435;28;20439;-43
2022/01/06 07:53:11;;;;;;;11.83;3.97;;;4.00;99.90;;;;;;5067436;28;20422;-43
2022/01/06 07:55:37;;;;;;;13.27;4.60;;;3.90;99.90;;;;;;5063320;28;20447;-42
2022/01/06 07:58:03;;;;;;;9.10;3.80;;;4.00;99.90;;;;;;5064512;28;20805;-43
2022/01/06 08:00:29;;;;;;;11.13;4.20;;;3.90;99.90;;;;;;5066347;28;20511;-42
2022/01/06 08:02:55;;;;;;;12.70;3.60;;;3.90;99.90;;;;;;5066949;28;20549;-43
2022/01/06 08:05:24;;;;;;;14.23;4.77;;;3.70;99.90;;;;;;5071906;28;20287;-43
2022/01/06 08:07:50;;;;;;;9.60;4.67;;;3.70;99.90;;;;;;5087410;28;20480;-43
2022/01/06 08:10:16;;;;;;;12.50;5.70;;;3.70;99.90;;;;;;5075781;28;20971;-43
2022/01/06 08:12:42;;;;;;;10.63;4.30;;;3.70;99.90;;;;;;5063171;28;20346;-44
2022/01/06 08:15:08;;;;;;;10.73;4.40;;;3.80;99.90;;;;;;5064969;28;20506;-43
2022/01/06 08:17:36;;;;;;;8.97;3.83;;;3.80;99.90;;;;;;5069063;28;20189;-42
2022/01/06 08:20:03;;;;;;;9.43;5.80;;;3.90;99.90;;;;;;5066852;28;20431;-44
2022/01/06 08:22:29;;;;;;;11.40;4.33;;;3.90;99.90;;;;;;5067848;28;20446;-43
2022/01/06 08:24:55;;;;;;;10.07;5.23;;;4.10;99.90;;;;;;5066558;28;20902;-43
2022/01/06 08:27:23;;;;;;;9.37;4.20;;;4.00;99.90;;;;;;5060563;28;20450;-42
2022/01/06 08:29:51;;;;;;;9.20;4.57;;;4.10;99.90;;;;;;5066198;28;20477;-43
2022/01/06 08:32:17;;;;;;;12.87;4.23;;;4.00;99.90;;;;;;5067180;28;20459;-44
2022/01/06 08:34:43;;;;;;;9.43;3.93;;;4.20;99.90;;;;;;5071091;28;20443;-43
2022/01/06 08:37:08;;;;;;;9.87;4.43;;;4.40;99.90;;;;;;5070602;28;20685;-45
2022/01/06 08:39:34;;;;;;;10.50;4.77;;;4.50;99.90;;;;;;5070135;28;20212;-43
2022/01/06 08:42:00;;;;;;;7.50;3.57;;;4.60;99.90;;;;;;5070134;28;20367;-47
2022/01/06 08:44:27;;;;;;;11.70;4.47;;;4.50;99.90;;;;;;5070775;28;20246;-43
2022/01/06 08:46:53;;;;;;;11.20;4.43;;;4.80;99.90;;;;;;5070733;28;20193;-43
2022/01/06 08:49:19;;;;;;;12.37;4.17;;;4.80;99.90;;;;;;5070830;28;20465;-43
2022/01/06 08:51:45;;;;;;;8.40;4.13;;;4.80;99.90;;;;;;5069962;28;20957;-43
2022/01/06 08:54:11;;;;;;;7.53;3.57;;;5.00;99.90;;;;;;5070257;28;20428;-42
2022/01/06 08:56:38;;;;;;;12.37;4.63;;;4.90;99.90;;;;;;5060102;28;20250;-43
2022/01/06 08:59:04;;;;;;;10.10;3.83;;;5.00;99.90;;;;;;5068925;28;20442;-43
2022/01/06 09:01:31;;;;;;;13.37;4.50;;;5.10;99.90;;;;;;5069403;28;20484;-43
2022/01/06 09:03:57;;;;;;;10.30;5.17;;;5.10;99.90;;;;;;5072140;28;20985;-43
2022/01/06 09:06:23;;;;;;;6.23;3.60;;;5.50;99.90;;;;;;5069883;28;20415;-45
2022/01/06 09:08:49;;;;;;;9.00;4.20;;;5.80;99.90;;;;;;5078796;28;20528;-43
2022/01/06 09:11:15;;;;;;;13.97;4.67;;;5.90;99.90;;;;;;5064323;28;20420;-43
2022/01/06 09:13:41;;;;;;;9.00;4.57;;;6.00;99.90;;;;;;5069630;28;20284;-43
2022/01/06 09:16:08;;;;;;;13.33;5.03;;;5.60;99.90;;;;;;5070032;28;20207;-43
2022/01/06 09:18:38;;;;;;;10.93;4.80;;;5.60;99.90;;;;;;5089375;28;20838;-46
2022/01/06 09:21:06;;;;;;;9.27;4.80;;;5.80;99.90;;;;;;5085843;28;20927;-44
2022/01/06 09:23:32;;;;;;;7.50;4.33;;;5.90;99.90;;;;;;5090311;28;20454;-44
2022/01/06 09:25:58;;;;;;;11.77;4.37;;;6.00;99.90;;;;;;5062425;28;21109;-43
2022/01/06 09:28:24;;;;;;;14.50;4.97;;;6.10;99.90;;;;;;5062215;28;20415;-43
2022/01/06 09:30:51;;;;;;;10.20;4.90;;;6.30;99.90;;;;;;5069210;28;20426;-43
2022/01/06 09:33:18;;;;;;;12.20;4.43;;;6.50;99.90;;;;;;5069671;28;20185;-43
2022/01/06 09:35:48;;;;;;;17.70;5.03;;;6.40;99.90;;;;;;5069724;28;20461;-44
2022/01/06 09:38:15;;;;;;;9.83;4.20;;;6.50;99.90;;;;;;5070026;28;20721;-43
2022/01/06 09:40:44;;;;;;;15.83;5.07;;;6.80;99.90;;;;;;5068683;28;20918;-44
2022/01/06 09:43:14;;;;;;;13.43;6.00;;;7.10;99.90;;;;;;5060708;28;20427;-43
2022/01/06 09:45:41;;;;;;;11.90;5.70;;;7.10;99.90;;;;;;5068778;28;20768;-45
2022/01/06 09:48:08;;;;;;;11.20;5.60;;;7.20;99.90;;;;;;5069464;28;20449;-44
2022/01/06 09:50:36;;;;;;;10.43;4.87;;;7.30;99.90;;;;;;5068737;28;20484;-43
2022/01/06 09:53:02;;;;;;;11.53;5.20;;;7.30;99.90;;;;;;5069845;28;20458;-43
2022/01/06 09:55:28;;;;;;;12.10;5.17;;;7.70;99.90;;;;;;5069655;28;20451;-44
2022/01/06 09:57:59;;;;;;;10.67;4.60;;;7.90;99.90;;;;;;5063513;28;20478;-43
2022/01/06 10:00:30;;;;;;;14.93;5.50;;;8.10;99.90;;;;;;5079672;28;20521;-43
2022/01/06 10:03:01;;;;;;;9.53;4.80;;;8.20;99.90;;;;;;5089418;28;20884;-44
2022/01/06 10:06:00;;;;;;;14.23;4.60;;;8.40;99.90;;;;;;5083598;28;20426;-45
2022/01/06 10:08:29;;;;;;;16.67;4.80;;;8.70;99.90;;;;;;5089116;28;20954;-43
2022/01/06 10:11:14;;;;;;;9.33;4.37;;;9.30;99.90;;;;;;5088302;28;20407;-44
2022/01/06 10:13:43;;;;;;;12.43;4.30;;;9.60;99.90;;;;;;5062401;28;20403;-43
2022/01/06 10:16:19;;;;;;;10.53;4.50;;;10.20;99.90;;;;;;5069190;28;20705;-44
2022/01/06 10:19:10;;;;;;;12.60;4.03;;;10.40;99.90;;;;;;5089675;28;20479;-43
2022/01/06 10:21:44;;;;;;;12.60;4.50;;;10.30;99.90;;;;;;5087957;28;20422;-43
2022/01/06 10:24:12;;;;;;;11.50;4.60;;;10.60;99.90;;;;;;5089200;28;20428;-46
2022/01/06 10:26:51;;;;;;;12.13;4.60;;;10.80;99.90;;;;;;5050911;28;20969;-44
2022/01/06 10:29:18;;;;;;;7.63;4.10;;;10.70;99.90;;;;;;5065043;28;20973;-45
2022/01/06 10:31:44;;;;;;;12.33;4.03;;;10.90;99.90;;;;;;5059725;28;20451;-45
2022/01/06 10:34:09;;;;;;;12.83;5.03;;;11.20;99.90;;;;;;5068512;28;21015;-44
2022/01/06 10:36:36;;;;;;;8.87;4.00;;;11.10;99.90;;;;;;5068817;28;20662;-44
2022/01/06 10:39:06;;;;;;;11.57;4.60;;;10.90;99.90;;;;;;5069011;28;20551;-44
2022/01/06 10:41:32;;;;;;;8.63;3.87;;;10.30;99.90;;;;;;5063882;28;20440;-45
2022/01/06 10:44:00;;;;;;;11.07;4.00;;;9.70;99.90;;;;;;5062523;28;20426;-44
2022/01/06 10:46:36;;;;;;;10.17;4.50;;;9.30;99.90;;;;;;5068221;28;20422;-44
2022/01/06 10:49:06;;;;;;;12.13;3.83;;;9.10;99.90;;;;;;5068448;28;20463;-43
2022/01/06 10:51:41;;;;;;;10.10;4.03;;;8.80;99.90;;;;;;5067863;28;20420;-45
2022/01/06 10:54:21;;;;;;;14.37;4.43;;;8.70;99.90;;;;;;5068607;28;20846;-45
2022/01/06 10:56:57;;;;;;;11.10;5.30;;;9.10;99.90;;;;;;5063642;28;20513;-43
2022/01/06 10:59:29;;;;;;;12.93;5.40;;;9.10;99.90;;;;;;5057490;28;20422;-43
2022/01/06 11:01:55;;;;;;;11.93;5.23;;;9.40;99.90;;;;;;5067557;28;20415;-44
2022/01/06 11:04:21;;;;;;;12.33;4.30;;;9.30;99.90;;;;;;5068276;28;21008;-44
2022/01/06 11:06:47;;;;;;;9.30;4.90;;;9.20;99.90;;;;;;5068029;28;20415;-44
2022/01/06 11:09:13;;;;;;;11.40;4.50;;;9.20;99.90;;;;;;5083616;28;20205;-44
2022/01/06 11:12:26;;;;;;;8.40;4.23;;;9.10;99.90;;;;;;5063971;28;20427;-43
2022/01/06 11:14:32;;;;;;;10.60;4.80;;;9.10;99.90;;;;;;5061373;28;20427;-46
2022/01/06 11:16:58;;;;;;;11.80;5.23;;;9.00;99.90;;;;;;5067929;28;20443;-43
2022/01/06 11:19:25;;;;;;;11.60;5.20;;;8.80;99.90;;;;;;5068267;28;20632;-45
2022/01/06 11:21:52;;;;;;;11.67;6.10;;;8.40;99.90;;;;;;5067220;28;20728;-45
2022/01/06 11:24:23;;;;;;;10.60;6.90;;;8.10;99.90;;;;;;5067667;28;20411;-45
2022/01/06 11:27:00;;;;;;;12.03;6.30;;;8.10;99.90;;;;;;5064025;28;20422;-43
2022/01/06 11:29:34;;;;;;;16.33;8.07;;;8.00;99.90;;;;;;5064357;28;20936;-43
2022/01/06 11:32:02;;;;;;;16.80;8.73;;;8.10;99.90;;;;;;5067605;28;20439;-44
2022/01/06 11:34:29;;;;;;;14.20;8.70;;;8.10;99.90;;;;;;5067356;28;20422;-44
2022/01/06 11:36:56;;;;;;;20.00;10.03;;;8.00;99.90;;;;;;5067613;28;20419;-44
2022/01/06 11:39:29;;;;;;;18.67;9.47;;;8.10;99.90;;;;;;5067534;28;20831;-43
2022/01/06 11:41:59;;;;;;;14.73;9.77;;;8.40;99.90;;;;;;5063995;28;20430;-44
2022/01/06 11:44:31;;;;;;;15.80;10.27;;;8.70;99.90;;;;;;5059598;28;20447;-44
2022/01/06 11:46:59;;;;;;;18.80;10.70;;;8.70;99.90;;;;;;5067279;28;20423;-44
2022/01/06 11:49:30;;;;;;;20.73;11.43;;;8.70;99.90;;;;;;5067467;28;20520;-44
2022/01/06 11:52:04;;;;;;;21.50;12.17;;;8.90;99.90;;;;;;5066980;28;20423;-44
2022/01/06 11:54:30;;;;;;;20.37;12.80;;;9.10;99.90;;;;;;5067409;28;20402;-43
2022/01/06 11:56:57;;;;;;;20.00;12.83;;;9.20;99.90;;;;;;5065144;28;20439;-43
2022/01/06 11:59:31;;;;;;;22.30;12.70;;;9.40;99.90;;;;;;5059566;28;20419;-45
2022/01/06 12:01:57;;;;;;;26.77;13.30;;;9.80;99.90;;;;;;5066419;28;20418;-45
2022/01/06 12:04:25;;;;;;;23.00;13.10;;;11.40;99.90;;;;;;5067294;28;20419;-43
2022/01/06 12:07:01;;;;;;;21.10;11.90;;;13.30;99.90;;;;;;5067423;28;20443;-46
2022/01/06 12:09:27;;;;;;;19.97;13.40;;;14.80;95.80;;;;;;5066663;28;20890;-47
2022/01/06 12:12:04;;;;;;;15.40;11.83;;;16.40;93.10;;;;;;5065072;28;20464;-45
2022/01/06 12:14:30;;;;;;;18.57;12.20;;;16.90;90.50;;;;;;5058724;28;20180;-44
2022/01/06 12:17:07;;;;;;;20.50;13.13;;;16.60;89.50;;;;;;5065822;28;20422;-45
2022/01/06 12:19:34;;;;;;;21.73;14.10;;;16.70;89.40;;;;;;5066809;28;20647;-45
2022/01/06 12:22:00;;;;;;;18.93;12.70;;;17.10;88.10;;;;;;5067442;28;20729;-43
2022/01/06 12:24:26;;;;;;;20.57;13.50;;;17.00;86.10;;;;;;5066759;28;20426;-48
2022/01/06 12:26:53;;;;;;;19.70;13.03;;;16.80;86.60;;;;;;5066360;28;20427;-43
2022/01/06 12:29:23;;;;;;;15.93;11.67;;;16.20;86.20;;;;;;5059073;28;20473;-46
2022/01/06 12:31:50;;;;;;;18.20;13.27;;;14.40;90.30;;;;;;5066102;28;20424;-44
2022/01/06 12:34:19;;;;;;;20.10;13.60;;;12.60;93.60;;;;;;5067050;28;20435;-43
2022/01/06 12:36:46;;;;;;;22.10;15.00;;;11.50;96.80;;;;;;5066799;28;20415;-48
2022/01/06 12:39:13;;;;;;;22.70;15.40;;;10.70;99.20;;;;;;5065515;28;20965;-44
2022/01/06 12:41:39;;;;;;;23.80;15.60;;;10.10;99.90;;;;;;5066452;28;20426;-44
2022/01/06 12:44:06;;;;;;;24.60;15.23;;;9.70;99.90;;;;;;5056462;28;20449;-46
2022/01/06 12:46:38;;;;;;;27.47;15.47;;;9.50;99.90;;;;;;5066644;28;20427;-44
2022/01/06 12:49:08;;;;;;;25.40;16.33;;;9.10;99.90;;;;;;5067262;28;20491;-44
2022/01/06 12:51:40;;;;;;;22.83;15.60;;;8.60;99.90;;;;;;5065237;28;20412;-45
2022/01/06 12:54:13;;;;;;;23.20;15.37;;;8.40;99.90;;;;;;5067897;28;20431;-43